sensor_id;sensor_type;location;lat;lon;timestamp;pressure;altitude;pressure_sealevel;temperature;humidity
13387;BME280;6763;48.524;9.044;2022-09-17T00:00:19;97437.63;;;15.12;53.06
13387;BME280;6763;48.524;9.044;2022-09-17T00:02:49;97441.06;;;15.13;53.10
13387;BME280;6763;48.524;9.044;2022-09-17T00:05:16;97437.56;;;15.14;53.45
13387;BME280;6763;48.524;9.044;2022-09-17T00:07:41;97439.41;;;15.12;53.12
13387;BME280;6763;48.524;9.044;2022-09-17T00:10:07;97435.16;;;15.09;53.36
13387;BME280;6763;48.524;9.044;2022-09-17T00:12:32;97436.97;;;15.07;53.38
13387;BME280;6763;48.524;9.044;2022-09-17T00:14:57;97438.88;;;15.04;53.48
13387;BME280;6763;48.524;9.044;2022-09-17T00:17:23;97433.78;;;15.01;53.52
13387;BME280;6763;48.524;9.044;2022-09-17T00:19:48;97446.75;;;15.02;53.81
13387;BME280;6763;48.524;9.044;2022-09-17T00:22:14;97442.38;;;15.03;53.71
13387;BME280;6763;48.524;9.044;2022-09-17T00:24:40;97444.94;;;15.04;53.42
13387;BME280;6763;48.524;9.044;2022-09-17T00:27:05;97439.66;;;15.06;53.24
13387;BME280;6763;48.524;9.044;2022-09-17T00:29:30;97440.44;;;15.08;53.38
13387;BME280;6763;48.524;9.044;2022-09-17T00:31:56;97441.06;;;15.13;53.25
13387;BME280;6763;48.524;9.044;2022-09-17T00:34:21;97443.56;;;15.16;53.16
13387;BME280;6763;48.524;9.044;2022-09-17T00:36:46;97448.56;;;15.20;53.01
13387;BME280;6763;48.524;9.044;2022-09-17T00:39:12;97445.84;;;15.23;52.95
13387;BME280;6763;48.524;9.044;2022-09-17T00:41:40;97444.81;;;15.27;52.76
13387;BME280;6763;48.524;9.044;2022-09-17T00:50:07;97448.78;;;15.36;52.62
13387;BME280;6763;48.524;9.044;2022-09-17T00:52:41;97443.31;;;15.42;52.40
13387;BME280;6763;48.524;9.044;2022-09-17T00:57:33;97443.84;;;15.50;52.26
13387;BME280;6763;48.524;9.044;2022-09-17T00:59:59;97448.00;;;15.54;52.44
13387;BME280;6763;48.524;9.044;2022-09-17T01:02:25;97444.41;;;15.57;52.04
13387;BME280;6763;48.524;9.044;2022-09-17T01:04:51;97450.44;;;15.59;52.11
13387;BME280;6763;48.524;9.044;2022-09-17T01:07:33;97451.22;;;15.61;51.83
13387;BME280;6763;48.524;9.044;2022-09-17T01:18:23;97447.53;;;15.65;51.79
13387;BME280;6763;48.524;9.044;2022-09-17T01:21:11;97454.34;;;15.69;51.71
13387;BME280;6763;48.524;9.044;2022-09-17T01:32:16;97454.84;;;15.77;51.52
13387;BME280;6763;48.524;9.044;2022-09-17T01:35:14;97459.09;;;15.79;51.34
13387;BME280;6763;48.524;9.044;2022-09-17T01:43:22;97460.13;;;15.75;51.65
13387;BME280;6763;48.524;9.044;2022-09-17T01:45:51;97461.81;;;15.76;52.34
13387;BME280;6763;48.524;9.044;2022-09-17T01:48:23;97448.06;;;15.73;51.73
13387;BME280;6763;48.524;9.044;2022-09-17T01:51:04;97454.25;;;15.70;51.80
13387;BME280;6763;48.524;9.044;2022-09-17T01:53:42;97450.94;;;15.67;51.92
13387;BME280;6763;48.524;9.044;2022-09-17T01:56:09;97453.59;;;15.65;52.01
13387;BME280;6763;48.524;9.044;2022-09-17T01:58:42;97458.19;;;15.60;52.09
13387;BME280;6763;48.524;9.044;2022-09-17T02:01:11;97461.84;;;15.56;52.14
13387;BME280;6763;48.524;9.044;2022-09-17T02:03:44;97460.22;;;15.54;52.26
13387;BME280;6763;48.524;9.044;2022-09-17T02:06:16;97457.75;;;15.50;52.31
13387;BME280;6763;48.524;9.044;2022-09-17T02:08:53;97464.84;;;15.47;52.30
13387;BME280;6763;48.524;9.044;2022-09-17T02:11:20;97463.19;;;15.44;52.53
13387;BME280;6763;48.524;9.044;2022-09-17T02:13:53;97458.94;;;15.42;52.15
13387;BME280;6763;48.524;9.044;2022-09-17T02:16:31;97460.78;;;15.40;52.64
13387;BME280;6763;48.524;9.044;2022-09-17T02:19:08;97457.31;;;15.39;52.89
13387;BME280;6763;48.524;9.044;2022-09-17T02:24:20;97461.97;;;15.33;53.12
13387;BME280;6763;48.524;9.044;2022-09-17T02:27:10;97457.78;;;15.29;53.29
13387;BME280;6763;48.524;9.044;2022-09-17T02:29:41;97455.38;;;15.24;53.38
13387;BME280;6763;48.524;9.044;2022-09-17T02:32:08;97456.34;;;15.22;53.49
13387;BME280;6763;48.524;9.044;2022-09-17T02:34:33;97467.69;;;15.21;53.52
13387;BME280;6763;48.524;9.044;2022-09-17T02:36:59;97457.25;;;15.21;53.60
13387;BME280;6763;48.524;9.044;2022-09-17T02:39:25;97463.41;;;15.20;53.59
13387;BME280;6763;48.524;9.044;2022-09-17T02:45:03;97468.44;;;15.23;53.29
13387;BME280;6763;48.524;9.044;2022-09-17T02:47:47;97463.19;;;15.24;53.29
13387;BME280;6763;48.524;9.044;2022-09-17T02:56:15;97462.22;;;14.85;55.00
13387;BME280;6763;48.524;9.044;2022-09-17T02:59:00;97462.66;;;14.74;55.65
13387;BME280;6763;48.524;9.044;2022-09-17T03:01:33;97464.59;;;14.69;55.68
13387;BME280;6763;48.524;9.044;2022-09-17T03:04:04;97460.44;;;14.65;55.88
13387;BME280;6763;48.524;9.044;2022-09-17T03:06:32;97464.06;;;14.61;56.01
13387;BME280;6763;48.524;9.044;2022-09-17T03:08:57;97471.13;;;14.58;56.47
13387;BME280;6763;48.524;9.044;2022-09-17T03:11:23;97465.22;;;14.54;56.43
13387;BME280;6763;48.524;9.044;2022-09-17T03:13:49;97462.63;;;14.54;56.63
13387;BME280;6763;48.524;9.044;2022-09-17T03:16:14;97457.41;;;14.54;56.76
13387;BME280;6763;48.524;9.044;2022-09-17T03:18:39;97459.09;;;14.55;56.92
13387;BME280;6763;48.524;9.044;2022-09-17T03:21:05;97459.09;;;14.55;57.11
13387;BME280;6763;48.524;9.044;2022-09-17T03:23:30;97458.25;;;14.55;57.13
13387;BME280;6763;48.524;9.044;2022-09-17T03:25:57;97457.44;;;14.53;57.65
13387;BME280;6763;48.524;9.044;2022-09-17T03:28:23;97460.13;;;14.51;57.77
13387;BME280;6763;48.524;9.044;2022-09-17T03:30:50;97464.56;;;14.49;57.87
13387;BME280;6763;48.524;9.044;2022-09-17T03:33:16;97466.50;;;14.44;57.78
13387;BME280;6763;48.524;9.044;2022-09-17T03:35:42;97471.81;;;14.41;57.97
13387;BME280;6763;48.524;9.044;2022-09-17T03:38:08;97480.59;;;14.39;58.42
13387;BME280;6763;48.524;9.044;2022-09-17T03:40:33;97475.44;;;14.37;57.92
13387;BME280;6763;48.524;9.044;2022-09-17T03:42:58;97479.81;;;14.37;57.98
13387;BME280;6763;48.524;9.044;2022-09-17T03:45:24;97474.66;;;14.35;57.95
13387;BME280;6763;48.524;9.044;2022-09-17T03:47:49;97472.97;;;14.34;58.49
13387;BME280;6763;48.524;9.044;2022-09-17T03:50:14;97478.19;;;14.34;58.59
13387;BME280;6763;48.524;9.044;2022-09-17T03:52:42;97478.19;;;14.34;58.34
13387;BME280;6763;48.524;9.044;2022-09-17T03:55:07;97476.41;;;14.35;58.17
13387;BME280;6763;48.524;9.044;2022-09-17T03:57:33;97479.06;;;14.33;58.55
13387;BME280;6763;48.524;9.044;2022-09-17T03:59:58;97478.19;;;14.34;58.33
13387;BME280;6763;48.524;9.044;2022-09-17T04:02:23;97479.00;;;14.35;58.43
13387;BME280;6763;48.524;9.044;2022-09-17T04:04:49;97474.66;;;14.35;58.78
13387;BME280;6763;48.524;9.044;2022-09-17T04:07:14;97485.91;;;14.36;58.54
13387;BME280;6763;48.524;9.044;2022-09-17T04:09:39;97481.59;;;14.35;58.79
13387;BME280;6763;48.524;9.044;2022-09-17T04:12:05;97478.22;;;14.33;58.80
13387;BME280;6763;48.524;9.044;2022-09-17T04:14:30;97480.00;;;14.30;58.40
13387;BME280;6763;48.524;9.044;2022-09-17T04:16:57;97480.97;;;14.28;58.66
13387;BME280;6763;48.524;9.044;2022-09-17T04:19:22;97486.28;;;14.25;58.20
13387;BME280;6763;48.524;9.044;2022-09-17T04:21:47;97487.31;;;14.21;58.80
13387;BME280;6763;48.524;9.044;2022-09-17T04:24:13;97496.03;;;14.20;58.41
13387;BME280;6763;48.524;9.044;2022-09-17T04:26:38;97490.81;;;14.20;58.56
13387;BME280;6763;48.524;9.044;2022-09-17T04:29:04;97492.47;;;14.22;58.28
13387;BME280;6763;48.524;9.044;2022-09-17T04:31:29;97491.59;;;14.22;58.87
13387;BME280;6763;48.524;9.044;2022-09-17T04:33:55;97502.88;;;14.22;58.70
13387;BME280;6763;48.524;9.044;2022-09-17T04:36:20;97508.06;;;14.22;58.33
13387;BME280;6763;48.524;9.044;2022-09-17T04:38:48;97514.13;;;14.23;58.04
13387;BME280;6763;48.524;9.044;2022-09-17T04:41:14;97505.53;;;14.21;58.60
13387;BME280;6763;48.524;9.044;2022-09-17T04:43:40;97510.75;;;14.21;58.79
13387;BME280;6763;48.524;9.044;2022-09-17T04:46:05;97511.66;;;14.20;58.89
13387;BME280;6763;48.524;9.044;2022-09-17T04:48:30;97513.47;;;14.18;58.95
13387;BME280;6763;48.524;9.044;2022-09-17T04:50:56;97517.06;;;14.14;58.80
13387;BME280;6763;48.524;9.044;2022-09-17T04:53:21;97511.94;;;14.12;58.48
13387;BME280;6763;48.524;9.044;2022-09-17T04:55:46;97509.50;;;14.08;58.23
13387;BME280;6763;48.524;9.044;2022-09-17T04:58:12;97511.38;;;14.04;58.82
13387;BME280;6763;48.524;9.044;2022-09-17T05:00:38;97514.03;;;14.03;58.22
13387;BME280;6763;48.524;9.044;2022-09-17T05:03:03;97511.53;;;14.00;58.60
13387;BME280;6763;48.524;9.044;2022-09-17T05:05:28;97516.84;;;13.97;58.48
13387;BME280;6763;48.524;9.044;2022-09-17T05:07:54;97512.69;;;13.93;58.89
13387;BME280;6763;48.524;9.044;2022-09-17T05:10:21;97511.94;;;13.89;58.65
13387;BME280;6763;48.524;9.044;2022-09-17T05:12:51;97522.34;;;13.89;58.41
13387;BME280;6763;48.524;9.044;2022-09-17T05:15:17;97518.94;;;13.87;58.81
13387;BME280;6763;48.524;9.044;2022-09-17T05:17:43;97520.72;;;13.85;58.47
13387;BME280;6763;48.524;9.044;2022-09-17T05:20:08;97525.94;;;13.85;58.86
13387;BME280;6763;48.524;9.044;2022-09-17T05:22:34;97532.84;;;13.86;58.78
13387;BME280;6763;48.524;9.044;2022-09-17T05:24:59;97530.16;;;13.88;59.09
13387;BME280;6763;48.524;9.044;2022-09-17T05:27:24;97537.09;;;13.89;58.90
13387;BME280;6763;48.524;9.044;2022-09-17T05:29:50;97539.66;;;13.90;58.65
13387;BME280;6763;48.524;9.044;2022-09-17T05:32:16;97551.75;;;13.91;58.16
13387;BME280;6763;48.524;9.044;2022-09-17T05:34:41;97545.66;;;13.92;58.59
13387;BME280;6763;48.524;9.044;2022-09-17T05:37:09;97536.81;;;13.96;58.44
13387;BME280;6763;48.524;9.044;2022-09-17T05:39:35;97534.16;;;13.98;58.57
13387;BME280;6763;48.524;9.044;2022-09-17T05:42:00;97544.44;;;14.01;58.70
13387;BME280;6763;48.524;9.044;2022-09-17T05:44:25;97553.91;;;14.03;58.48
13387;BME280;6763;48.524;9.044;2022-09-17T05:46:51;97558.09;;;14.07;58.20
13387;BME280;6763;48.524;9.044;2022-09-17T05:49:17;97559.63;;;14.13;58.58
13387;BME280;6763;48.524;9.044;2022-09-17T05:51:42;97558.56;;;14.18;57.94
13387;BME280;6763;48.524;9.044;2022-09-17T05:54:08;97560.13;;;14.22;57.91
13387;BME280;6763;48.524;9.044;2022-09-17T05:56:33;97562.72;;;14.24;58.00
13387;BME280;6763;48.524;9.044;2022-09-17T05:58:59;97565.31;;;14.24;57.99
13387;BME280;6763;48.524;9.044;2022-09-17T06:01:24;97569.66;;;14.23;57.97
13387;BME280;6763;48.524;9.044;2022-09-17T06:03:50;97565.31;;;14.24;58.13
13387;BME280;6763;48.524;9.044;2022-09-17T06:06:15;97570.50;;;14.24;57.71
13387;BME280;6763;48.524;9.044;2022-09-17T06:08:41;97576.50;;;14.26;57.96
13387;BME280;6763;48.524;9.044;2022-09-17T06:11:07;97575.47;;;14.30;58.12
13387;BME280;6763;48.524;9.044;2022-09-17T06:13:33;97575.34;;;14.35;57.74
13387;BME280;6763;48.524;9.044;2022-09-17T06:15:59;97577.13;;;14.34;57.59
13387;BME280;6763;48.524;9.044;2022-09-17T06:18:26;97578.91;;;14.32;57.26
13387;BME280;6763;48.524;9.044;2022-09-17T06:20:53;97572.88;;;14.32;57.15
13387;BME280;6763;48.524;9.044;2022-09-17T06:23:19;97571.91;;;14.34;57.21
13387;BME280;6763;48.524;9.044;2022-09-17T06:25:50;97570.81;;;14.40;57.00
13387;BME280;6763;48.524;9.044;2022-09-17T06:28:16;97577.41;;;14.50;56.91
13387;BME280;6763;48.524;9.044;2022-09-17T06:30:41;97572.69;;;14.59;57.39
13387;BME280;6763;48.524;9.044;2022-09-17T06:33:06;97572.28;;;14.70;56.86
13387;BME280;6763;48.524;9.044;2022-09-17T06:35:32;97585.78;;;14.79;57.07
13387;BME280;6763;48.524;9.044;2022-09-17T06:37:57;97583.63;;;14.90;56.99
13387;BME280;6763;48.524;9.044;2022-09-17T06:40:22;97583.91;;;15.05;56.48
13387;BME280;6763;48.524;9.044;2022-09-17T06:42:48;97578.28;;;15.15;55.79
13387;BME280;6763;48.524;9.044;2022-09-17T06:45:13;97589.00;;;15.29;55.50
13387;BME280;6763;48.524;9.044;2022-09-17T06:47:39;97592.66;;;15.47;55.20
13387;BME280;6763;48.524;9.044;2022-09-17T06:50:04;97596.25;;;15.65;54.35
13387;BME280;6763;48.524;9.044;2022-09-17T06:52:30;97589.56;;;15.79;53.73
13387;BME280;6763;48.524;9.044;2022-09-17T06:54:55;97597.13;;;15.85;52.98
13387;BME280;6763;48.524;9.044;2022-09-17T06:57:21;97594.59;;;15.84;52.18
13387;BME280;6763;48.524;9.044;2022-09-17T06:59:47;97589.56;;;15.79;51.84
13387;BME280;6763;48.524;9.044;2022-09-17T07:02:14;97600.13;;;15.76;51.92
13387;BME280;6763;48.524;9.044;2022-09-17T07:04:39;97593.41;;;15.71;51.42
13387;BME280;6763;48.524;9.044;2022-09-17T07:07:05;97599.53;;;15.70;51.64
13387;BME280;6763;48.524;9.044;2022-09-17T07:09:30;97595.03;;;15.73;51.67
13387;BME280;6763;48.524;9.044;2022-09-17T07:11:55;97589.69;;;15.76;51.55
13387;BME280;6763;48.524;9.044;2022-09-17T07:14:21;97597.19;;;15.84;51.56
13387;BME280;6763;48.524;9.044;2022-09-17T07:16:48;97598.50;;;15.94;51.71
13387;BME280;6763;48.524;9.044;2022-09-17T07:19:14;97601.50;;;16.05;51.04
13387;BME280;6763;48.524;9.044;2022-09-17T07:21:39;97608.00;;;16.15;50.67
13387;BME280;6763;48.524;9.044;2022-09-17T07:24:05;97601.38;;;16.27;50.26
13387;BME280;6763;48.524;9.044;2022-09-17T07:26:30;97615.72;;;16.37;50.22
13387;BME280;6763;48.524;9.044;2022-09-17T07:28:55;97611.94;;;16.44;50.04
13387;BME280;6763;48.524;9.044;2022-09-17T07:31:21;97613.63;;;16.45;49.49
13387;BME280;6763;48.524;9.044;2022-09-17T07:33:47;97617.22;;;16.42;49.49
13387;BME280;6763;48.524;9.044;2022-09-17T07:36:14;97620.06;;;16.38;49.80
13387;BME280;6763;48.524;9.044;2022-09-17T07:38:42;97629.09;;;16.31;50.09
13387;BME280;6763;48.524;9.044;2022-09-17T07:41:15;97628.81;;;16.17;49.55
13387;BME280;6763;48.524;9.044;2022-09-17T07:43:41;97632.31;;;15.97;50.48
13387;BME280;6763;48.524;9.044;2022-09-17T07:46:12;97634.72;;;15.81;50.82
13387;BME280;6763;48.524;9.044;2022-09-17T07:48:37;97635.28;;;15.68;50.88
13387;BME280;6763;48.524;9.044;2022-09-17T07:51:03;97634.94;;;15.55;51.34
13387;BME280;6763;48.524;9.044;2022-09-17T07:53:28;97638.63;;;15.49;51.38
13387;BME280;6763;48.524;9.044;2022-09-17T07:55:58;97643.06;;;15.47;51.88
13387;BME280;6763;48.524;9.044;2022-09-17T07:58:32;97644.00;;;15.45;51.64
13387;BME280;6763;48.524;9.044;2022-09-17T08:00:59;97646.81;;;15.40;52.35
13387;BME280;6763;48.524;9.044;2022-09-17T08:03:25;97649.25;;;15.43;52.47
13387;BME280;6763;48.524;9.044;2022-09-17T08:05:50;97652.41;;;15.53;53.02
13387;BME280;6763;48.524;9.044;2022-09-17T08:08:16;97646.56;;;15.68;53.08
13387;BME280;6763;48.524;9.044;2022-09-17T08:10:41;97646.00;;;15.82;52.84
13387;BME280;6763;48.524;9.044;2022-09-17T08:13:07;97647.75;;;15.81;52.66
13387;BME280;6763;48.524;9.044;2022-09-17T08:15:32;97653.88;;;15.80;52.23
13387;BME280;6763;48.524;9.044;2022-09-17T08:17:57;97643.72;;;15.74;52.26
13387;BME280;6763;48.524;9.044;2022-09-17T08:20:23;97654.94;;;15.76;52.31
13387;BME280;6763;48.524;9.044;2022-09-17T08:22:57;97645.81;;;15.86;52.46
13387;BME280;6763;48.524;9.044;2022-09-17T08:25:22;97653.22;;;15.95;51.95
13387;BME280;6763;48.524;9.044;2022-09-17T08:27:52;97649.91;;;16.12;51.81
13387;BME280;6763;48.524;9.044;2022-09-17T08:30:17;97652.47;;;16.34;51.67
13387;BME280;6763;48.524;9.044;2022-09-17T08:32:43;97656.75;;;16.55;50.66
13387;BME280;6763;48.524;9.044;2022-09-17T08:35:08;97647.44;;;16.68;49.58
13387;BME280;6763;48.524;9.044;2022-09-17T08:37:33;97650.44;;;16.79;49.33
13387;BME280;6763;48.524;9.044;2022-09-17T08:39:59;97646.19;;;16.95;48.62
13387;BME280;6763;48.524;9.044;2022-09-17T08:42:38;97645.00;;;17.02;48.16
13387;BME280;6763;48.524;9.044;2022-09-17T08:45:09;97645.75;;;17.04;48.36
13387;BME280;6763;48.524;9.044;2022-09-17T08:47:39;97650.81;;;17.09;48.52
13387;BME280;6763;48.524;9.044;2022-09-17T08:50:31;97656.81;;;17.11;47.87
13387;BME280;6763;48.524;9.044;2022-09-17T08:56:02;97663.16;;;17.24;47.52
13387;BME280;6763;48.524;9.044;2022-09-17T08:58:54;97668.50;;;17.40;47.37
13387;BME280;6763;48.524;9.044;2022-09-17T09:07:36;97665.75;;;17.43;46.58
13387;BME280;6763;48.524;9.044;2022-09-17T09:10:10;97667.28;;;17.47;46.71
13387;BME280;6763;48.524;9.044;2022-09-17T09:12:38;97663.81;;;17.46;46.37
13387;BME280;6763;48.524;9.044;2022-09-17T09:17:51;97663.66;;;17.68;46.41
13387;BME280;6763;48.524;9.044;2022-09-17T09:26:12;97660.75;;;18.08;43.65
13387;BME280;6763;48.524;9.044;2022-09-17T09:33:56;97667.94;;;18.39;42.44
13387;BME280;6763;48.524;9.044;2022-09-17T09:36:21;97662.00;;;18.35;42.33
13387;BME280;6763;48.524;9.044;2022-09-17T09:38:59;97660.44;;;18.31;42.22
13387;BME280;6763;48.524;9.044;2022-09-17T09:41:33;97660.13;;;18.37;42.12
13387;BME280;6763;48.524;9.044;2022-09-17T09:44:08;97657.34;;;18.57;41.84
13387;BME280;6763;48.524;9.044;2022-09-17T09:46:39;97655.03;;;18.84;40.93
13387;BME280;6763;48.524;9.044;2022-09-17T09:49:46;97660.22;;;19.01;39.83
13387;BME280;6763;48.524;9.044;2022-09-17T09:57:45;97652.72;;;19.11;39.67
13387;BME280;6763;48.524;9.044;2022-09-17T10:03:10;97658.88;;;19.10;39.04
13387;BME280;6763;48.524;9.044;2022-09-17T10:05:38;97652.88;;;19.08;39.52
13387;BME280;6763;48.524;9.044;2022-09-17T10:08:13;97657.69;;;19.00;39.38
13387;BME280;6763;48.524;9.044;2022-09-17T10:13:29;97668.69;;;18.91;39.83
13387;BME280;6763;48.524;9.044;2022-09-17T10:15:55;97666.97;;;18.90;39.85
13387;BME280;6763;48.524;9.044;2022-09-17T10:18:22;97660.88;;;18.89;39.63
13387;BME280;6763;48.524;9.044;2022-09-17T10:20:59;97661.03;;;18.86;39.58
13387;BME280;6763;48.524;9.044;2022-09-17T10:23:42;97663.50;;;18.89;39.82
13387;BME280;6763;48.524;9.044;2022-09-17T10:26:20;97664.63;;;19.01;39.61
13387;BME280;6763;48.524;9.044;2022-09-17T10:28:51;97660.50;;;19.28;38.99
13387;BME280;6763;48.524;9.044;2022-09-17T10:31:17;97651.56;;;19.48;38.43
13387;BME280;6763;48.524;9.044;2022-09-17T10:33:55;97659.06;;;19.54;37.74
13387;BME280;6763;48.524;9.044;2022-09-17T10:41:55;97660.00;;;19.53;36.83
13387;BME280;6763;48.524;9.044;2022-09-17T10:44:23;97649.06;;;19.60;37.00
13387;BME280;6763;48.524;9.044;2022-09-17T10:46:50;97645.59;;;19.60;37.13
13387;BME280;6763;48.524;9.044;2022-09-17T10:52:09;97638.84;;;19.86;37.06
13387;BME280;6763;48.524;9.044;2022-09-17T10:57:39;97641.19;;;20.20;36.20
13387;BME280;6763;48.524;9.044;2022-09-17T11:00:14;97652.50;;;20.06;36.15
13387;BME280;6763;48.524;9.044;2022-09-17T11:03:08;97652.22;;;19.97;36.39
13387;BME280;6763;48.524;9.044;2022-09-17T11:14:19;97637.59;;;20.79;34.26
13387;BME280;6763;48.524;9.044;2022-09-17T11:20:00;97636.69;;;20.80;33.99
13387;BME280;6763;48.524;9.044;2022-09-17T11:22:32;97640.88;;;20.68;34.50
13387;BME280;6763;48.524;9.044;2022-09-17T11:25:23;97634.31;;;20.61;34.38
13387;BME280;6763;48.524;9.044;2022-09-17T11:28:22;97628.47;;;20.42;33.93
13387;BME280;6763;48.524;9.044;2022-09-17T11:31:02;97631.28;;;20.39;33.71
13387;BME280;6763;48.524;9.044;2022-09-17T11:36:44;97626.50;;;20.60;33.80
13387;BME280;6763;48.524;9.044;2022-09-17T11:39:20;97610.38;;;20.66;33.86
13387;BME280;6763;48.524;9.044;2022-09-17T11:41:48;97608.22;;;20.72;33.72
13387;BME280;6763;48.524;9.044;2022-09-17T11:44:24;97610.06;;;20.84;33.13
13387;BME280;6763;48.524;9.044;2022-09-17T11:52:10;97627.75;;;20.68;32.44
13387;BME280;6763;48.524;9.044;2022-09-17T11:57:18;97620.97;;;20.78;32.82
13387;BME280;6763;48.524;9.044;2022-09-17T11:59:49;97614.19;;;20.88;33.11
13387;BME280;6763;48.524;9.044;2022-09-17T12:02:43;97608.00;;;20.75;32.70
13387;BME280;6763;48.524;9.044;2022-09-17T12:05:28;97600.97;;;20.76;33.03
13387;BME280;6763;48.524;9.044;2022-09-17T12:12:56;97598.03;;;20.94;32.15
13387;BME280;6763;48.524;9.044;2022-09-17T12:15:26;97596.00;;;21.26;30.73
13387;BME280;6763;48.524;9.044;2022-09-17T12:20:48;97594.88;;;21.57;30.79
13387;BME280;6763;48.524;9.044;2022-09-17T12:23:26;97587.56;;;21.48;31.50
13387;BME280;6763;48.524;9.044;2022-09-17T12:28:52;97587.63;;;21.34;32.93
13387;BME280;6763;48.524;9.044;2022-09-17T12:31:31;97583.44;;;21.17;32.69
13387;BME280;6763;48.524;9.044;2022-09-17T12:34:36;97580.91;;;21.01;32.63
13387;BME280;6763;48.524;9.044;2022-09-17T12:55:04;97569.31;;;20.77;34.13
13387;BME280;6763;48.524;9.044;2022-09-17T13:00:43;97544.84;;;21.30;31.47
13387;BME280;6763;48.524;9.044;2022-09-17T13:03:26;97550.75;;;21.34;31.01
13387;BME280;6763;48.524;9.044;2022-09-17T13:12:07;97574.75;;;21.69;30.42
13387;BME280;6763;48.524;9.044;2022-09-17T13:14:46;97575.75;;;21.41;30.65
13387;BME280;6763;48.524;9.044;2022-09-17T13:20:01;97601.00;;;20.62;32.93
13387;BME280;6763;48.524;9.044;2022-09-17T13:22:32;97640.88;;;20.10;35.01
13387;BME280;6763;48.524;9.044;2022-09-17T13:25:10;97646.19;;;19.34;39.01
13387;BME280;6763;48.524;9.044;2022-09-17T13:27:37;97649.47;;;18.57;41.91
13387;BME280;6763;48.524;9.044;2022-09-17T13:30:08;97653.38;;;17.99;43.54
13387;BME280;6763;48.524;9.044;2022-09-17T13:37:40;97675.94;;;16.74;45.86
13387;BME280;6763;48.524;9.044;2022-09-17T13:40:24;97678.91;;;16.46;47.58
13387;BME280;6763;48.524;9.044;2022-09-17T13:42:55;97668.31;;;16.29;47.36
13387;BME280;6763;48.524;9.044;2022-09-17T13:45:22;97664.81;;;16.10;47.26
13387;BME280;6763;48.524;9.044;2022-09-17T13:48:01;97662.78;;;15.96;48.34
13387;BME280;6763;48.524;9.044;2022-09-17T13:50:30;97649.00;;;15.93;48.87
13387;BME280;6763;48.524;9.044;2022-09-17T13:52:58;97651.28;;;16.00;48.96
13387;BME280;6763;48.524;9.044;2022-09-17T13:55:48;97651.81;;;16.08;49.83
13387;BME280;6763;48.524;9.044;2022-09-17T14:14:32;97646.56;;;17.06;48.19
13387;BME280;6763;48.524;9.044;2022-09-17T14:16:47;97639.56;;;17.61;47.18
13387;BME280;6763;48.524;9.044;2022-09-17T14:21:40;97634.09;;;18.17;44.08
13387;BME280;6763;48.524;9.044;2022-09-17T14:24:22;97633.75;;;18.57;42.68
13387;BME280;6763;48.524;9.044;2022-09-17T14:26:52;97637.44;;;18.86;41.77
13387;BME280;6763;48.524;9.044;2022-09-17T14:31:56;97619.94;;;19.34;40.29
13387;BME280;6763;48.524;9.044;2022-09-17T14:34:23;97627.97;;;19.62;39.90
13387;BME280;6763;48.524;9.044;2022-09-17T14:36:51;97615.09;;;19.87;39.44
13387;BME280;6763;48.524;9.044;2022-09-17T14:39:23;97613.66;;;19.97;39.44
13387;BME280;6763;48.524;9.044;2022-09-17T14:41:49;97615.94;;;20.17;38.84
13387;BME280;6763;48.524;9.044;2022-09-17T14:44:18;97607.66;;;20.09;38.37
13387;BME280;6763;48.524;9.044;2022-09-17T14:46:54;97618.06;;;20.11;39.07
13387;BME280;6763;48.524;9.044;2022-09-17T14:49:25;97607.16;;;20.03;38.70
13387;BME280;6763;48.524;9.044;2022-09-17T14:51:52;97607.66;;;19.79;39.00
13387;BME280;6763;48.524;9.044;2022-09-17T14:59:36;97605.25;;;19.76;38.69
13387;BME280;6763;48.524;9.044;2022-09-17T15:04:57;97605.28;;;19.61;38.97
13387;BME280;6763;48.524;9.044;2022-09-17T15:07:24;97598.97;;;19.79;38.59
13387;BME280;6763;48.524;9.044;2022-09-17T15:09:49;97606.13;;;19.91;37.91
13387;BME280;6763;48.524;9.044;2022-09-17T15:12:22;97605.16;;;19.92;37.91
13387;BME280;6763;48.524;9.044;2022-09-17T15:14:49;97606.00;;;19.78;38.29
13387;BME280;6763;48.524;9.044;2022-09-17T15:17:17;97592.13;;;19.76;38.64
13387;BME280;6763;48.524;9.044;2022-09-17T15:19:48;97603.91;;;19.69;38.88
13387;BME280;6763;48.524;9.044;2022-09-17T15:22:27;97608.28;;;19.39;38.73
13387;BME280;6763;48.524;9.044;2022-09-17T15:25:09;97613.25;;;19.28;38.99
13387;BME280;6763;48.524;9.044;2022-09-17T15:27:38;97610.97;;;19.22;39.31
13387;BME280;6763;48.524;9.044;2022-09-17T15:32:32;97606.13;;;19.14;39.95
13387;BME280;6763;48.524;9.044;2022-09-17T15:37:45;97606.81;;;18.87;39.74
13387;BME280;6763;48.524;9.044;2022-09-17T15:40:12;97603.69;;;18.80;39.79
13387;BME280;6763;48.524;9.044;2022-09-17T15:42:38;97614.06;;;18.66;39.96
13387;BME280;6763;48.524;9.044;2022-09-17T15:45:21;97613.38;;;18.63;40.17
13387;BME280;6763;48.524;9.044;2022-09-17T15:50:23;97617.59;;;18.65;40.98
13387;BME280;6763;48.524;9.044;2022-09-17T15:52:49;97614.06;;;18.66;41.00
13387;BME280;6763;48.524;9.044;2022-09-17T15:55:45;97615.25;;;18.61;41.42
13387;BME280;6763;48.524;9.044;2022-09-17T15:58:25;97621.84;;;18.68;41.52
13387;BME280;6763;48.524;9.044;2022-09-17T16:08:52;97617.97;;;18.59;41.09
13387;BME280;6763;48.524;9.044;2022-09-17T16:11:20;97619.88;;;18.55;41.22
13387;BME280;6763;48.524;9.044;2022-09-17T16:13:46;97616.59;;;18.52;41.38
13387;BME280;6763;48.524;9.044;2022-09-17T16:16:17;97621.25;;;18.63;40.92
13387;BME280;6763;48.524;9.044;2022-09-17T16:18:43;97623.38;;;18.72;40.94
13387;BME280;6763;48.524;9.044;2022-09-17T16:21:09;97611.75;;;18.93;41.07
13387;BME280;6763;48.524;9.044;2022-09-17T16:23:35;97616.25;;;19.06;40.62
13387;BME280;6763;48.524;9.044;2022-09-17T16:26:00;97613.50;;;19.24;40.20
13387;BME280;6763;48.524;9.044;2022-09-17T16:28:25;97616.19;;;19.53;39.77
13387;BME280;6763;48.524;9.044;2022-09-17T16:30:51;97621.66;;;19.80;39.32
13387;BME280;6763;48.524;9.044;2022-09-17T16:33:17;97620.00;;;19.79;38.82
13387;BME280;6763;48.524;9.044;2022-09-17T16:35:43;97622.72;;;19.62;39.03
13387;BME280;6763;48.524;9.044;2022-09-17T16:38:09;97631.38;;;19.48;39.27
13387;BME280;6763;48.524;9.044;2022-09-17T16:40:39;97637.47;;;19.33;39.37
13387;BME280;6763;48.524;9.044;2022-09-17T16:43:07;97636.00;;;19.12;39.51